createdAt,value
2022-10-18T00:02:20.250Z,6.48
2022-10-18T00:04:47.312Z,6.44
2022-10-18T00:07:14.005Z,6.34
2022-10-18T00:09:40.862Z,6.29
2022-10-18T00:12:08.119Z,6.20
2022-10-18T00:14:34.888Z,6.17
2022-10-18T00:17:01.837Z,6.13
2022-10-18T00:19:29.373Z,6.17
2022-10-18T00:21:56.672Z,6.18
2022-10-18T00:24:23.331Z,6.12
2022-10-18T00:26:50.079Z,6.04
2022-10-18T00:29:18.200Z,6.04
2022-10-18T00:31:45.272Z,5.97
2022-10-18T00:34:14.559Z,5.91
2022-10-18T00:36:42.212Z,5.86
2022-10-18T00:39:16.679Z,5.83
2022-10-18T00:41:43.984Z,5.81
2022-10-18T00:44:13.614Z,5.77
2022-10-18T00:46:45.850Z,5.72
2022-10-18T00:49:23.353Z,5.68
2022-10-18T00:51:58.099Z,5.67
2022-10-18T00:54:26.714Z,5.60
2022-10-18T00:56:54.121Z,5.66
2022-10-18T00:59:21.069Z,5.72
2022-10-18T01:01:47.962Z,5.71
2022-10-18T01:04:16.838Z,5.58
2022-10-18T01:06:59.679Z,5.49
2022-10-18T01:09:39.301Z,5.45
2022-10-18T01:12:21.059Z,5.40
2022-10-18T01:14:59.973Z,5.40
2022-10-18T01:18:05.690Z,5.41
2022-10-18T01:20:51.395Z,5.37
2022-10-18T01:23:25.313Z,5.36
2022-10-18T01:25:55.924Z,5.32
2022-10-18T01:28:42.806Z,5.28
2022-10-18T01:31:33.022Z,5.26
2022-10-18T01:34:07.984Z,5.25
2022-10-18T01:36:42.199Z,5.23
2022-10-18T01:39:14.639Z,5.18
2022-10-18T01:41:44.314Z,5.19
2022-10-18T01:44:16.018Z,5.14
2022-10-18T01:46:44.200Z,5.13
2022-10-18T01:49:10.854Z,5.06
2022-10-18T01:51:37.540Z,5.00
2022-10-18T01:54:04.476Z,5.02
2022-10-18T01:56:49.247Z,4.97
2022-10-18T01:59:51.173Z,4.92
2022-10-18T02:02:47.136Z,4.80
2022-10-18T02:05:19.711Z,4.80
2022-10-18T02:08:12.015Z,4.84
2022-10-18T02:10:43.414Z,4.84
2022-10-18T02:13:13.105Z,4.87
2022-10-18T02:15:44.342Z,4.84
2022-10-18T02:18:35.483Z,4.77
2022-10-18T02:21:05.540Z,4.78
2022-10-18T02:23:33.911Z,4.70
2022-10-18T02:26:01.212Z,4.63
2022-10-18T02:28:28.140Z,4.62
2022-10-18T02:31:28.768Z,4.57
2022-10-18T02:33:58.155Z,4.57
2022-10-18T02:36:46.615Z,4.49
2022-10-18T02:39:18.346Z,4.46
2022-10-18T02:41:45.146Z,4.38
2022-10-18T02:44:11.818Z,4.42
2022-10-18T02:46:39.447Z,4.48
2022-10-18T02:49:06.366Z,4.38
2022-10-18T02:51:33.297Z,4.43
2022-10-18T02:54:00.067Z,4.46
2022-10-18T02:56:26.691Z,4.51
2022-10-18T02:58:53.362Z,4.45
2022-10-18T03:01:20.226Z,4.44
2022-10-18T03:03:46.939Z,4.32
2022-10-18T03:06:13.571Z,4.25
2022-10-18T03:08:40.290Z,4.30
2022-10-18T03:11:07.091Z,4.22
2022-10-18T03:13:36.440Z,4.12
2022-10-18T03:18:47.515Z,4.11
2022-10-18T03:21:14.158Z,4.18
2022-10-18T03:23:42.290Z,4.19
2022-10-18T03:26:09.447Z,4.18
2022-10-18T03:28:36.276Z,4.11
2022-10-18T03:31:06.140Z,4.09
2022-10-18T03:33:33.388Z,4.10
2022-10-18T03:36:00.470Z,4.07
2022-10-18T03:38:27.200Z,4.08
2022-10-18T03:40:53.887Z,4.05
2022-10-18T03:43:20.725Z,4.07
2022-10-18T03:45:49.825Z,4.10
2022-10-18T03:48:16.498Z,4.08
2022-10-18T03:50:44.031Z,3.93
2022-10-18T03:53:10.735Z,3.99
2022-10-18T03:55:37.786Z,4.00
2022-10-18T03:58:04.425Z,3.89
2022-10-18T04:00:31.158Z,3.87
2022-10-18T04:02:57.860Z,3.77
2022-10-18T04:05:26.849Z,3.81
2022-10-18T04:07:54.801Z,3.80
2022-10-18T04:10:21.541Z,3.78
2022-10-18T04:12:48.236Z,3.77
2022-10-18T04:15:14.979Z,3.80
2022-10-18T04:17:42.379Z,3.78
2022-10-18T04:20:09.885Z,3.80
2022-10-18T04:22:36.534Z,3.77
2022-10-18T04:25:04.298Z,3.71
2022-10-18T04:27:31.877Z,3.65
2022-10-18T04:29:58.792Z,3.67
2022-10-18T04:32:27.919Z,3.69
2022-10-18T04:34:54.539Z,3.65
2022-10-18T04:37:21.211Z,3.68
2022-10-18T04:39:51.273Z,3.66
2022-10-18T04:42:20.540Z,3.64
2022-10-18T04:44:47.323Z,3.58
2022-10-18T04:47:13.936Z,3.65
2022-10-18T04:49:41.695Z,3.65
2022-10-18T04:52:08.774Z,3.63
2022-10-18T04:54:35.713Z,3.58
2022-10-18T04:57:03.501Z,3.55
2022-10-18T04:59:30.300Z,3.55
2022-10-18T05:01:57.073Z,3.48
2022-10-18T05:04:23.839Z,3.55
2022-10-18T05:06:50.506Z,3.55
2022-10-18T05:09:17.144Z,3.54
2022-10-18T05:11:43.843Z,3.49
2022-10-18T05:14:10.986Z,3.52
2022-10-18T05:16:37.781Z,3.50
2022-10-18T05:19:05.950Z,3.40
2022-10-18T05:21:33.752Z,3.37
2022-10-18T05:24:00.551Z,3.39
2022-10-18T05:26:28.123Z,3.37
2022-10-18T05:28:55.216Z,3.42
2022-10-18T05:31:22.053Z,3.37
2022-10-18T05:33:49.244Z,3.38
2022-10-18T05:36:16.139Z,3.37
2022-10-18T05:38:44.090Z,3.34
2022-10-18T05:41:11.676Z,3.31
2022-10-18T05:43:39.232Z,3.26
2022-10-18T05:46:11.901Z,3.17
2022-10-18T05:48:42.183Z,3.18
2022-10-18T05:51:08.870Z,3.17
2022-10-18T05:53:37.815Z,3.18
2022-10-18T05:56:05.860Z,3.13
2022-10-18T05:58:34.521Z,3.13
2022-10-18T06:01:02.476Z,3.16
2022-10-18T06:03:31.011Z,3.16
2022-10-18T06:06:07.840Z,3.12
2022-10-18T06:08:35.211Z,3.13
2022-10-18T06:11:18.830Z,3.20
2022-10-18T06:13:47.858Z,3.22
2022-10-18T06:16:16.941Z,3.14
2022-10-18T06:18:47.231Z,3.13
2022-10-18T06:21:13.880Z,3.09
2022-10-18T06:23:40.938Z,3.09
2022-10-18T06:26:10.016Z,3.04
2022-10-18T06:28:38.081Z,3.04
2022-10-18T06:31:05.534Z,2.99
2022-10-18T06:33:34.276Z,3.11
2022-10-18T06:36:03.276Z,3.12
2022-10-18T06:38:30.913Z,3.08
2022-10-18T06:41:01.336Z,3.14
2022-10-18T06:43:28.160Z,3.08
2022-10-18T06:45:55.572Z,3.07
2022-10-18T06:48:24.622Z,3.10
2022-10-18T06:50:57.146Z,3.16
2022-10-18T06:53:25.497Z,3.13
2022-10-18T06:55:52.769Z,3.17
2022-10-18T06:58:19.453Z,3.14
2022-10-18T07:00:47.028Z,3.14
2022-10-18T07:03:13.688Z,3.12
2022-10-18T07:05:40.340Z,3.14
2022-10-18T07:08:07.066Z,3.10
2022-10-18T07:10:33.841Z,3.18
2022-10-18T07:13:20.004Z,3.20
2022-10-18T07:15:47.216Z,3.20
2022-10-18T07:18:14.258Z,3.21
2022-10-18T07:20:41.035Z,3.29
2022-10-18T07:23:09.618Z,3.34
2022-10-18T07:25:36.285Z,3.37
2022-10-18T07:28:03.652Z,3.37
2022-10-18T07:30:33.865Z,3.42
2022-10-18T07:33:00.535Z,3.42
2022-10-18T07:35:27.675Z,3.51
2022-10-18T07:37:54.337Z,3.61
2022-10-18T07:40:21.149Z,3.69
2022-10-18T07:42:48.287Z,3.77
2022-10-18T07:45:14.943Z,3.80
2022-10-18T07:47:41.870Z,3.86
2022-10-18T07:50:09.083Z,4.00
2022-10-18T07:52:35.999Z,4.05
2022-10-18T07:55:02.772Z,4.12
2022-10-18T07:57:29.687Z,4.17
2022-10-18T07:59:56.895Z,4.29
2022-10-18T08:02:27.060Z,4.38
2022-10-18T08:04:53.655Z,4.50
2022-10-18T08:07:20.324Z,4.57
2022-10-18T08:09:47.133Z,4.70
2022-10-18T08:12:15.716Z,4.81
2022-10-18T08:14:43.925Z,4.94
2022-10-18T08:17:10.732Z,5.09
2022-10-18T08:19:37.507Z,5.19
2022-10-18T08:22:04.200Z,5.32
2022-10-18T08:24:31.166Z,5.47
2022-10-18T08:26:57.816Z,5.57
2022-10-18T08:29:27.012Z,5.70
2022-10-18T08:31:56.055Z,5.83
2022-10-18T08:34:22.895Z,5.98
2022-10-18T08:36:49.518Z,6.15
2022-10-18T08:39:16.161Z,6.43
2022-10-18T08:42:24.625Z,6.56
2022-10-18T08:44:54.252Z,6.79
2022-10-18T08:47:40.175Z,6.99
2022-10-18T08:50:20.295Z,7.17
2022-10-18T08:53:20.294Z,7.43
2022-10-18T08:55:55.344Z,7.68
2022-10-18T08:58:26.652Z,7.75
2022-10-18T09:01:32.644Z,7.90
2022-10-18T09:04:11.516Z,8.03
2022-10-18T09:06:47.992Z,8.10
2022-10-18T09:09:45.623Z,8.19
2022-10-18T09:12:31.873Z,8.32
2022-10-18T09:15:20.338Z,8.49
2022-10-18T09:18:08.272Z,8.67
2022-10-18T09:20:47.935Z,8.81
2022-10-18T09:23:23.165Z,8.92
2022-10-18T09:26:22.487Z,9.09
2022-10-18T09:29:07.740Z,9.33
2022-10-18T09:31:56.732Z,9.54
2022-10-18T09:34:37.219Z,9.64
2022-10-18T09:37:04.800Z,9.68
2022-10-18T09:39:37.060Z,9.90
2022-10-18T09:42:11.563Z,9.96
2022-10-18T09:44:42.034Z,10.05
2022-10-18T09:47:17.097Z,10.14
2022-10-18T09:49:51.610Z,10.24
2022-10-18T09:52:30.762Z,10.36
2022-10-18T09:55:02.314Z,10.45
2022-10-18T09:57:52.384Z,10.55
2022-10-18T10:00:26.019Z,10.63
2022-10-18T10:02:52.741Z,10.71
2022-10-18T10:05:19.993Z,10.81
2022-10-18T10:07:49.230Z,10.95
2022-10-18T10:10:25.086Z,11.00
2022-10-18T10:13:17.862Z,11.06
2022-10-18T10:15:54.489Z,11.13
2022-10-18T10:18:28.373Z,11.16
2022-10-18T10:21:00.979Z,11.22
2022-10-18T10:23:45.362Z,11.35
2022-10-18T10:26:32.474Z,11.46
2022-10-18T10:29:00.834Z,11.48
2022-10-18T10:31:30.819Z,11.52
2022-10-18T10:34:06.595Z,11.53
2022-10-18T10:36:35.135Z,11.57
2022-10-18T10:39:12.954Z,11.64
2022-10-18T10:41:41.282Z,11.65
2022-10-18T10:44:20.410Z,11.71
2022-10-18T10:46:49.459Z,11.76
2022-10-18T10:52:33.767Z,11.87
2022-10-18T10:55:16.737Z,11.91
2022-10-18T10:57:51.241Z,11.96
2022-10-18T11:00:43.021Z,12.05
2022-10-18T11:03:28.600Z,12.08
2022-10-18T11:05:57.974Z,12.16
2022-10-18T11:08:30.536Z,12.25
2022-10-18T11:11:30.716Z,12.32
2022-10-18T11:14:26.556Z,12.37
2022-10-18T11:17:14.572Z,12.39
2022-10-18T11:20:11.687Z,12.40
2022-10-18T11:23:12.414Z,12.45
2022-10-18T11:26:02.075Z,12.47
2022-10-18T11:29:10.221Z,12.52
2022-10-18T11:31:43.674Z,12.55
2022-10-18T11:34:29.388Z,12.62
2022-10-18T11:37:27.300Z,12.65
2022-10-18T11:40:16.033Z,12.64
2022-10-18T11:43:04.418Z,12.69
2022-10-18T11:46:03.968Z,12.73
2022-10-18T11:48:46.045Z,12.73
2022-10-18T11:51:15.377Z,12.82
2022-10-18T11:54:03.584Z,12.92
2022-10-18T12:01:12.295Z,12.99
2022-10-18T12:04:08.164Z,13.02
2022-10-18T12:06:38.890Z,13.10
2022-10-18T12:09:32.958Z,13.13
2022-10-18T12:12:31.792Z,13.19
2022-10-18T12:15:19.870Z,13.24
2022-10-18T12:17:59.577Z,13.19
2022-10-18T12:20:36.794Z,13.27
2022-10-18T12:23:03.434Z,13.32
2022-10-18T12:25:36.993Z,13.34
2022-10-18T12:28:16.071Z,13.36
2022-10-18T12:30:52.334Z,13.36
2022-10-18T12:33:28.252Z,13.39
2022-10-18T12:36:21.502Z,13.43
2022-10-18T12:38:58.698Z,13.47
2022-10-18T12:41:28.853Z,13.47
2022-10-18T12:44:06.860Z,13.47
2022-10-18T12:46:48.687Z,13.56
2022-10-18T12:49:22.855Z,13.52
2022-10-18T12:52:00.210Z,13.59
2022-10-18T12:54:30.803Z,13.60
2022-10-18T12:56:59.522Z,13.65
2022-10-18T12:59:26.816Z,13.62
2022-10-18T13:01:53.527Z,13.61
2022-10-18T13:04:33.553Z,13.62
2022-10-18T13:07:07.925Z,13.69
2022-10-18T13:09:40.122Z,13.73
2022-10-18T13:12:09.834Z,13.74
2022-10-18T13:15:12.500Z,13.74
2022-10-18T13:17:53.733Z,13.77
2022-10-18T13:20:40.187Z,13.80
2022-10-18T13:23:40.964Z,13.85
2022-10-18T13:26:23.088Z,13.85
2022-10-18T13:29:13.865Z,13.86
2022-10-18T13:32:00.853Z,13.85
2022-10-18T13:34:39.127Z,13.89
2022-10-18T13:37:11.895Z,13.92
2022-10-18T13:39:40.141Z,13.92
2022-10-18T13:42:15.899Z,13.96
2022-10-18T13:44:46.673Z,13.98
2022-10-18T13:47:16.004Z,13.96
2022-10-18T13:49:59.486Z,13.92
2022-10-18T13:52:36.727Z,13.96
2022-10-18T13:55:25.304Z,14.02
2022-10-18T13:58:19.029Z,14.06
2022-10-18T14:01:04.541Z,14.05
2022-10-18T14:04:03.173Z,14.02
2022-10-18T14:06:41.739Z,14.01
2022-10-18T14:09:45.107Z,13.98
2022-10-18T14:12:31.580Z,13.98
2022-10-18T14:15:07.602Z,13.96
2022-10-18T14:17:43.857Z,13.94
2022-10-18T14:20:29.454Z,13.97
2022-10-18T14:23:11.181Z,14.02
2022-10-18T14:25:38.873Z,14.02
2022-10-18T14:28:21.703Z,13.96
2022-10-18T14:31:02.082Z,13.96
2022-10-18T14:33:28.725Z,13.96
2022-10-18T14:36:01.555Z,13.95
2022-10-18T14:38:29.313Z,13.96
2022-10-18T14:41:17.292Z,13.96
2022-10-18T14:43:44.674Z,13.95
2022-10-18T14:46:33.750Z,13.92
2022-10-18T14:49:04.384Z,13.90
2022-10-18T14:51:35.689Z,13.89
2022-10-18T14:54:02.955Z,13.88
2022-10-18T14:56:32.927Z,13.87
2022-10-18T14:59:11.664Z,13.85
2022-10-18T15:01:39.387Z,13.82
2022-10-18T15:04:11.677Z,13.80
2022-10-18T15:06:43.655Z,13.76
2022-10-18T15:09:12.965Z,13.73
2022-10-18T15:11:41.543Z,13.70
2022-10-18T15:14:16.426Z,13.67
2022-10-18T15:16:43.262Z,13.68
2022-10-18T15:19:16.002Z,13.64
2022-10-18T15:22:30.346Z,13.62
2022-10-18T15:25:11.337Z,13.64
2022-10-18T15:27:39.799Z,13.59
2022-10-18T15:30:23.338Z,13.56
2022-10-18T15:32:55.953Z,13.64
2022-10-18T15:35:34.896Z,13.60
2022-10-18T15:38:26.073Z,13.56
2022-10-18T15:40:53.034Z,13.54
2022-10-18T15:43:25.758Z,13.50
2022-10-18T15:46:03.425Z,13.47
2022-10-18T15:48:42.105Z,13.43
2022-10-18T15:51:26.746Z,13.39
2022-10-18T15:53:54.389Z,13.35
2022-10-18T15:56:34.514Z,13.32
2022-10-18T15:59:04.687Z,13.27
2022-10-18T16:01:51.787Z,13.19
2022-10-18T16:04:21.569Z,13.20
2022-10-18T16:06:48.318Z,13.15
2022-10-18T16:09:20.673Z,13.09
2022-10-18T16:11:55.570Z,13.03
2022-10-18T16:14:24.817Z,12.98
2022-10-18T16:16:55.275Z,12.90
2022-10-18T16:19:25.044Z,12.82
2022-10-18T16:21:53.852Z,12.76
2022-10-18T16:24:21.518Z,12.75
2022-10-18T16:26:48.671Z,12.75
2022-10-18T16:29:25.829Z,12.73
2022-10-18T16:31:55.321Z,12.67
2022-10-18T16:34:21.964Z,12.63
2022-10-18T16:36:49.087Z,12.58
2022-10-18T16:39:20.838Z,12.52
2022-10-18T16:41:48.157Z,12.44
2022-10-18T16:44:16.492Z,12.37
2022-10-18T16:46:44.318Z,12.35
2022-10-18T16:51:52.978Z,12.28
2022-10-18T16:54:20.016Z,12.26
2022-10-18T16:56:47.899Z,12.17
2022-10-18T16:59:30.411Z,12.15
2022-10-18T17:01:57.505Z,12.13
2022-10-18T17:04:24.347Z,12.07
2022-10-18T17:06:52.768Z,12.01
2022-10-18T17:09:19.434Z,12.02
2022-10-18T17:11:46.057Z,12.00
2022-10-18T17:14:12.952Z,12.00
2022-10-18T17:16:39.574Z,11.98
2022-10-18T17:19:12.115Z,11.92
2022-10-18T17:21:38.783Z,11.94
2022-10-18T17:24:06.300Z,12.00
2022-10-18T17:26:33.779Z,11.97
2022-10-18T17:29:05.990Z,11.96
2022-10-18T17:31:33.194Z,11.90
2022-10-18T17:34:01.765Z,11.86
2022-10-18T17:36:30.271Z,11.82
2022-10-18T17:38:57.468Z,11.78
2022-10-18T17:41:24.193Z,11.76
2022-10-18T17:43:50.874Z,11.71
2022-10-18T17:46:18.073Z,11.60
2022-10-18T17:48:45.671Z,11.59
2022-10-18T17:51:15.043Z,11.55
2022-10-18T17:53:41.755Z,11.49
2022-10-18T17:56:08.901Z,11.40
2022-10-18T17:58:35.918Z,11.31
2022-10-18T18:01:22.010Z,11.27
2022-10-18T18:03:49.084Z,11.18
2022-10-18T18:06:18.897Z,11.05
2022-10-18T18:08:46.146Z,10.90
2022-10-18T18:11:13.549Z,10.93
2022-10-18T18:13:40.299Z,10.96
2022-10-18T18:16:14.864Z,11.02
2022-10-18T18:18:42.111Z,11.04
2022-10-18T18:21:09.067Z,11.00
2022-10-18T18:23:36.376Z,10.94
2022-10-18T18:26:03.448Z,10.89
2022-10-18T18:28:30.280Z,10.86
2022-10-18T18:30:56.968Z,10.81
2022-10-18T18:33:23.655Z,10.82
2022-10-18T18:35:59.315Z,10.80
2022-10-18T18:38:26.380Z,10.77
2022-10-18T18:41:23.556Z,10.75
2022-10-18T18:43:56.243Z,10.71
2022-10-18T18:46:24.258Z,10.73
2022-10-18T18:48:50.979Z,10.71
2022-10-18T18:51:20.376Z,10.70
2022-10-18T18:53:48.803Z,10.68
2022-10-18T18:56:18.553Z,10.63
2022-10-18T18:58:46.343Z,10.60
2022-10-18T19:01:17.443Z,10.61
2022-10-18T19:03:45.436Z,10.65
2022-10-18T19:06:15.923Z,10.63
2022-10-18T19:08:46.365Z,10.61
2022-10-18T19:11:18.191Z,10.64
2022-10-18T19:13:45.679Z,10.62
2022-10-18T19:16:20.154Z,10.60
2022-10-18T19:19:07.421Z,10.64
2022-10-18T19:21:36.870Z,10.63
2022-10-18T19:24:05.015Z,10.55
2022-10-18T19:26:45.490Z,10.50
2022-10-18T19:29:17.864Z,10.45
2022-10-18T19:31:45.646Z,10.41
2022-10-18T19:34:14.164Z,10.45
2022-10-18T19:36:43.243Z,10.46
2022-10-18T19:39:16.274Z,10.46
2022-10-18T19:41:43.034Z,10.46
2022-10-18T19:44:09.656Z,10.46
2022-10-18T19:46:36.356Z,10.45
2022-10-18T19:49:03.023Z,10.36
2022-10-18T19:51:29.781Z,10.36
2022-10-18T19:53:57.559Z,10.35
2022-10-18T19:56:25.599Z,10.35
2022-10-18T19:58:52.661Z,10.35
2022-10-18T20:01:20.293Z,10.31
2022-10-18T20:03:47.405Z,10.23
2022-10-18T20:06:15.007Z,10.21
2022-10-18T20:11:12.379Z,10.12
2022-10-18T20:13:39.572Z,10.14
2022-10-18T20:16:08.826Z,10.12
2022-10-18T20:18:36.387Z,10.09
2022-10-18T20:21:07.703Z,10.06
2022-10-18T20:23:38.835Z,10.03
2022-10-18T20:26:20.525Z,9.98
2022-10-18T20:28:49.406Z,9.95
2022-10-18T20:31:19.031Z,9.97
2022-10-18T20:33:47.271Z,9.96
2022-10-18T20:36:15.202Z,9.86
2022-10-18T20:38:44.116Z,9.84
2022-10-18T20:41:13.699Z,9.80
2022-10-18T20:43:40.775Z,9.77
2022-10-18T20:46:09.276Z,9.71
2022-10-18T20:48:36.695Z,9.70
2022-10-18T20:51:09.139Z,9.67
2022-10-18T20:53:36.792Z,9.70
2022-10-18T20:56:05.690Z,9.69
2022-10-18T20:58:33.670Z,9.64
2022-10-18T21:01:21.147Z,9.56
2022-10-18T21:03:49.855Z,9.52
2022-10-18T21:06:25.426Z,9.52
2022-10-18T21:09:03.385Z,9.49
2022-10-18T21:11:34.443Z,9.45
2022-10-18T21:14:05.488Z,9.46
2022-10-18T21:16:35.229Z,9.46
2022-10-18T21:19:10.845Z,9.40
2022-10-18T21:21:37.670Z,9.35
2022-10-18T21:24:07.771Z,9.40
2022-10-18T21:26:35.218Z,9.34
2022-10-18T21:29:02.696Z,9.33
2022-10-18T21:31:39.388Z,9.32
2022-10-18T21:34:18.311Z,9.34
2022-10-18T21:36:47.754Z,9.31
2022-10-18T21:39:17.615Z,9.35
2022-10-18T21:41:45.020Z,9.29
2022-10-18T21:44:13.165Z,9.29
2022-10-18T21:46:42.937Z,9.25
2022-10-18T21:49:10.555Z,9.25
2022-10-18T21:51:38.138Z,9.24
2022-10-18T21:54:07.635Z,9.25
2022-10-18T21:56:35.974Z,9.26
2022-10-18T21:59:03.705Z,9.25
2022-10-18T22:01:35.935Z,9.30
2022-10-18T22:04:05.299Z,9.28
2022-10-18T22:09:08.431Z,9.29
2022-10-18T22:11:45.207Z,9.25
2022-10-18T22:14:12.050Z,9.26
2022-10-18T22:16:38.799Z,9.30
2022-10-18T22:19:06.520Z,9.26
2022-10-18T22:21:33.813Z,9.32
2022-10-18T22:24:03.579Z,9.33
2022-10-18T22:26:35.846Z,9.32
2022-10-18T22:29:06.254Z,9.31
2022-10-18T22:31:36.540Z,9.33
2022-10-18T22:34:07.232Z,9.37
2022-10-18T22:36:34.676Z,9.34
2022-10-18T22:39:01.828Z,9.35
2022-10-18T22:41:28.668Z,9.38
2022-10-18T22:43:57.426Z,9.38
2022-10-18T22:46:26.874Z,9.37
2022-10-18T22:48:54.140Z,9.39
2022-10-18T22:51:20.914Z,9.35
2022-10-18T22:53:47.573Z,9.36
2022-10-18T22:56:17.523Z,9.35
2022-10-18T22:58:44.390Z,9.36
2022-10-18T23:01:14.324Z,9.39
2022-10-18T23:03:41.126Z,9.36
2022-10-18T23:06:20.202Z,9.43
2022-10-18T23:08:47.331Z,9.38
2022-10-18T23:11:14.176Z,9.39
2022-10-18T23:13:40.843Z,9.35
2022-10-18T23:16:09.091Z,9.37
2022-10-18T23:18:36.165Z,9.34
2022-10-18T23:21:04.317Z,9.32
2022-10-18T23:23:34.905Z,9.30
2022-10-18T23:26:06.836Z,9.31
2022-10-18T23:28:35.897Z,9.35
2022-10-18T23:31:23.477Z,9.38
2022-10-18T23:33:52.577Z,9.35
2022-10-18T23:36:20.036Z,9.31
2022-10-18T23:38:46.790Z,9.23
2022-10-18T23:41:15.088Z,9.21
2022-10-18T23:43:42.707Z,9.20
2022-10-18T23:46:10.134Z,9.18
2022-10-18T23:48:37.020Z,9.25
2022-10-18T23:51:04.209Z,9.21
2022-10-18T23:53:31.678Z,9.19
2022-10-18T23:56:00.932Z,9.12
2022-10-18T23:58:28.719Z,9.14
